createdAt,value
2023-12-09T00:01:46.600Z,43.00
2023-12-09T00:03:49.677Z,43.00
2023-12-09T00:05:52.700Z,43.91
2023-12-09T00:07:55.515Z,44.00
2023-12-09T00:09:58.257Z,43.36
2023-12-09T00:12:01.030Z,41.27
2023-12-09T00:14:05.497Z,39.82
2023-12-09T00:16:08.808Z,34.91
2023-12-09T00:18:12.105Z,31.91
2023-12-09T00:20:14.939Z,31.00
2023-12-09T00:22:17.759Z,30.73
2023-12-09T00:24:21.066Z,30.00
2023-12-09T00:26:23.925Z,30.00
2023-12-09T00:28:27.323Z,30.00
2023-12-09T00:30:30.137Z,30.00
2023-12-09T00:32:33.071Z,30.00
2023-12-09T00:34:36.501Z,30.64
2023-12-09T00:36:39.262Z,29.55
2023-12-09T00:38:42.031Z,23.64
2023-12-09T00:40:44.812Z,21.55
2023-12-09T00:42:47.973Z,20.00
2023-12-09T00:44:50.818Z,19.55
2023-12-09T00:46:53.572Z,18.45
2023-12-09T00:48:56.460Z,17.91
2023-12-09T00:50:59.322Z,17.00
2023-12-09T00:53:02.085Z,15.45
2023-12-09T00:55:05.541Z,10.91
2023-12-09T00:57:08.325Z,8.18
2023-12-09T00:59:11.138Z,7.00
2023-12-09T01:01:14.886Z,7.00
2023-12-09T01:03:17.904Z,7.82
2023-12-09T01:05:20.689Z,8.00
2023-12-09T01:07:23.445Z,7.09
2023-12-09T01:09:26.990Z,7.00
2023-12-09T01:11:29.775Z,7.00
2023-12-09T01:13:32.527Z,7.00
2023-12-09T01:15:35.381Z,7.00
2023-12-09T01:17:38.162Z,7.55
2023-12-09T01:19:41.504Z,8.00
2023-12-09T01:21:44.313Z,8.73
2023-12-09T01:23:47.095Z,9.27
2023-12-09T01:25:49.843Z,10.55
2023-12-09T01:27:53.694Z,12.91
2023-12-09T01:29:56.619Z,16.36
2023-12-09T01:31:59.381Z,18.27
2023-12-09T01:34:02.288Z,19.36
2023-12-09T01:36:05.804Z,20.09
2023-12-09T01:38:08.769Z,21.00
2023-12-09T01:40:15.348Z,22.27
2023-12-09T01:42:18.128Z,25.64
2023-12-09T01:44:20.920Z,31.18
2023-12-09T01:46:24.052Z,42.82
2023-12-09T01:48:27.006Z,49.64
2023-12-09T01:50:31.488Z,53.91
2023-12-09T01:52:35.540Z,53.64
2023-12-09T01:54:38.341Z,51.55
2023-12-09T01:56:41.283Z,48.45
2023-12-09T01:58:44.084Z,43.00
2023-12-09T02:00:47.479Z,34.36
2023-12-09T02:02:50.832Z,30.36
2023-12-09T02:04:55.379Z,30.36
2023-12-09T02:06:58.203Z,30.00
2023-12-09T02:09:01.101Z,28.82
2023-12-09T02:11:16.032Z,26.00
2023-12-09T02:13:24.360Z,26.00
2023-12-09T02:15:46.321Z,25.55
2023-12-09T02:17:57.367Z,26.00
2023-12-09T02:20:01.733Z,26.64
2023-12-09T02:22:07.265Z,27.82
2023-12-09T02:24:10.038Z,31.82
2023-12-09T02:26:22.092Z,32.00
2023-12-09T02:28:28.332Z,32.18
2023-12-09T02:30:42.934Z,33.00
2023-12-09T02:32:46.929Z,34.73
2023-12-09T02:34:52.357Z,34.55
2023-12-09T02:36:58.764Z,34.00
2023-12-09T02:39:04.935Z,34.91
2023-12-09T02:41:08.166Z,37.27
2023-12-09T02:43:11.466Z,38.91
2023-12-09T02:45:14.514Z,34.45
2023-12-09T02:47:17.306Z,25.55
2023-12-09T02:49:20.124Z,26.09
2023-12-09T02:51:22.994Z,30.91
2023-12-09T02:53:25.774Z,46.91
2023-12-09T02:55:28.521Z,58.36
2023-12-09T02:57:31.378Z,65.18
2023-12-09T02:59:34.161Z,70.36
2023-12-09T03:01:36.901Z,70.36
2023-12-09T03:03:39.885Z,75.27
2023-12-09T03:05:42.758Z,79.73
2023-12-09T03:07:45.512Z,81.18
2023-12-09T03:09:48.561Z,91.36
2023-12-09T03:11:51.320Z,86.73
2023-12-09T03:13:54.084Z,85.82
2023-12-09T03:15:56.870Z,87.82
2023-12-09T03:17:59.712Z,88.36
2023-12-09T03:20:03.887Z,92.00
2023-12-09T03:22:06.685Z,92.64
2023-12-09T03:24:09.603Z,90.64
2023-12-09T03:26:19.300Z,88.45
2023-12-09T03:28:22.053Z,85.82
2023-12-09T03:30:25.894Z,84.82
2023-12-09T03:32:28.945Z,83.27
2023-12-09T03:34:32.019Z,81.45
2023-12-09T03:36:34.875Z,81.27
2023-12-09T03:38:37.667Z,81.36
2023-12-09T03:40:40.425Z,79.64
2023-12-09T03:42:43.188Z,79.00
2023-12-09T03:44:45.967Z,78.18
2023-12-09T03:46:48.717Z,81.27
2023-12-09T03:48:51.762Z,87.73
2023-12-09T03:50:54.735Z,87.36
2023-12-09T03:52:57.495Z,84.82
2023-12-09T03:55:00.351Z,82.18
2023-12-09T03:57:03.155Z,81.82
2023-12-09T03:59:05.884Z,78.55
2023-12-09T04:01:08.837Z,75.91
2023-12-09T04:03:12.350Z,73.82
2023-12-09T04:05:15.336Z,72.00
2023-12-09T04:07:18.132Z,72.36
2023-12-09T04:09:23.589Z,73.45
2023-12-09T04:11:26.455Z,75.09
2023-12-09T04:13:29.607Z,76.73
2023-12-09T04:15:32.429Z,76.00
2023-12-09T04:17:35.409Z,75.00
2023-12-09T04:19:38.353Z,75.00
2023-12-09T04:21:41.278Z,75.00
2023-12-09T04:23:44.032Z,75.82
2023-12-09T04:25:46.800Z,74.45
2023-12-09T04:27:49.877Z,74.00
2023-12-09T04:29:52.672Z,75.18
2023-12-09T04:31:56.042Z,76.91
2023-12-09T04:33:59.673Z,76.00
2023-12-09T04:36:04.171Z,75.64
2023-12-09T04:38:06.987Z,74.91
2023-12-09T04:40:11.769Z,73.09
2023-12-09T04:42:14.612Z,71.82
2023-12-09T04:44:17.357Z,71.00
2023-12-09T04:46:20.116Z,70.00
2023-12-09T04:48:23.011Z,70.18
2023-12-09T04:50:25.846Z,71.27
2023-12-09T04:52:28.893Z,73.73
2023-12-09T04:54:32.089Z,76.55
2023-12-09T04:56:34.906Z,80.09
2023-12-09T04:58:37.668Z,80.73
2023-12-09T05:00:40.495Z,79.64
2023-12-09T05:02:43.307Z,79.00
2023-12-09T05:04:46.041Z,79.55
2023-12-09T05:06:49.116Z,78.36
2023-12-09T05:08:51.980Z,77.09
2023-12-09T05:10:54.728Z,72.64
2023-12-09T05:12:58.134Z,72.82
2023-12-09T05:15:00.995Z,75.27
2023-12-09T05:17:03.869Z,77.36
2023-12-09T05:19:09.672Z,79.64
2023-12-09T05:21:15.239Z,88.64
2023-12-09T05:23:18.030Z,95.73
2023-12-09T05:25:20.990Z,95.09
2023-12-09T05:27:23.771Z,98.36
2023-12-09T05:29:26.578Z,100.82
2023-12-09T05:31:29.314Z,99.91
2023-12-09T05:33:32.179Z,101.27
2023-12-09T05:35:35.007Z,116.00
2023-12-09T05:37:37.957Z,114.09
2023-12-09T05:39:40.762Z,111.09
2023-12-09T05:41:43.529Z,108.36
2023-12-09T05:43:46.310Z,104.73
2023-12-09T05:45:49.091Z,99.09
2023-12-09T05:47:51.994Z,95.36
2023-12-09T05:49:54.871Z,91.45
2023-12-09T05:51:58.014Z,89.91
2023-12-09T05:54:00.818Z,88.55
2023-12-09T05:56:03.639Z,85.91
2023-12-09T05:58:07.544Z,84.55
2023-12-09T06:00:13.583Z,84.00
2023-12-09T06:02:16.356Z,83.09
2023-12-09T06:04:19.162Z,88.73
2023-12-09T06:06:22.021Z,152.64
2023-12-09T06:08:24.976Z,156.73
2023-12-09T06:10:27.714Z,154.91
2023-12-09T06:12:30.742Z,143.18
2023-12-09T06:14:33.756Z,136.18
2023-12-09T06:16:36.573Z,128.64
2023-12-09T06:18:39.725Z,120.82
2023-12-09T06:20:42.522Z,112.09
2023-12-09T06:22:45.423Z,105.09
2023-12-09T06:24:48.210Z,108.09
2023-12-09T06:26:50.985Z,109.64
2023-12-09T06:28:54.361Z,106.91
2023-12-09T06:30:57.213Z,93.55
2023-12-09T06:33:00.234Z,90.82
2023-12-09T06:35:03.144Z,92.91
2023-12-09T06:37:05.957Z,85.91
2023-12-09T06:39:08.750Z,74.55
2023-12-09T06:41:11.512Z,73.91
2023-12-09T06:43:14.249Z,78.27
2023-12-09T06:45:17.576Z,136.36
2023-12-09T06:47:20.414Z,142.27
2023-12-09T06:49:23.238Z,119.27
2023-12-09T06:51:26.384Z,111.73
2023-12-09T06:53:29.204Z,109.55
2023-12-09T06:55:31.977Z,109.18
2023-12-09T06:57:35.848Z,113.36
2023-12-09T06:59:38.787Z,133.09
2023-12-09T07:01:43.807Z,134.00
2023-12-09T07:03:46.769Z,126.73
2023-12-09T07:05:49.630Z,122.64
2023-12-09T07:07:52.481Z,109.55
2023-12-09T07:09:57.205Z,91.45
2023-12-09T07:12:02.409Z,101.91
2023-12-09T07:14:06.319Z,186.55
2023-12-09T07:16:11.045Z,210.18
2023-12-09T07:18:15.246Z,222.36
2023-12-09T07:20:19.413Z,314.36
2023-12-09T07:22:23.652Z,401.64
2023-12-09T07:24:26.457Z,315.64
2023-12-09T07:26:29.403Z,297.64
2023-12-09T07:28:32.165Z,345.91
2023-12-09T07:30:34.968Z,459.36
2023-12-09T07:32:37.844Z,382.45
2023-12-09T07:34:41.148Z,283.64
2023-12-09T07:36:44.475Z,183.64
2023-12-09T07:38:47.265Z,163.45
2023-12-09T07:40:50.015Z,143.45
2023-12-09T07:42:52.787Z,144.09
2023-12-09T07:44:55.566Z,116.55
2023-12-09T07:46:58.310Z,108.73
2023-12-09T07:49:01.133Z,141.18
2023-12-09T07:51:04.059Z,164.73
2023-12-09T07:53:07.154Z,141.18
2023-12-09T07:55:10.499Z,131.82
2023-12-09T07:57:13.284Z,119.55
2023-12-09T07:59:16.112Z,113.27
2023-12-09T08:01:19.620Z,186.73
2023-12-09T08:03:22.549Z,206.91
2023-12-09T08:05:25.408Z,161.27
2023-12-09T08:07:28.540Z,129.73
2023-12-09T08:09:31.499Z,122.00
2023-12-09T08:11:34.309Z,108.82
2023-12-09T08:13:37.100Z,106.36
2023-12-09T08:15:39.902Z,115.82
2023-12-09T08:17:42.784Z,141.18
2023-12-09T08:19:45.646Z,202.64
2023-12-09T08:21:48.499Z,275.45
2023-12-09T08:23:51.308Z,449.91
2023-12-09T08:25:54.058Z,473.09
2023-12-09T08:27:56.819Z,450.82
2023-12-09T08:29:59.607Z,325.27
2023-12-09T08:32:02.523Z,237.45
2023-12-09T08:34:05.696Z,179.18
2023-12-09T08:36:08.801Z,139.64
2023-12-09T08:38:11.577Z,151.18
2023-12-09T08:40:14.448Z,341.91
2023-12-09T08:42:17.290Z,470.64
2023-12-09T08:44:20.576Z,496.00
2023-12-09T08:46:23.378Z,497.00
2023-12-09T08:48:26.273Z,462.64
2023-12-09T08:50:29.201Z,408.18
2023-12-09T08:52:32.886Z,342.00
2023-12-09T08:54:35.655Z,287.27
2023-12-09T08:56:38.489Z,243.45
2023-12-09T08:58:41.244Z,229.45
2023-12-09T09:00:44.143Z,189.27
2023-12-09T09:02:48.427Z,179.73
2023-12-09T09:04:51.253Z,185.18
2023-12-09T09:06:54.016Z,178.18
2023-12-09T09:08:56.787Z,241.36
2023-12-09T09:10:59.544Z,200.82
2023-12-09T09:13:02.306Z,153.18
2023-12-09T09:15:07.572Z,137.82
2023-12-09T09:17:11.467Z,150.64
2023-12-09T09:19:14.304Z,135.73
2023-12-09T09:21:18.025Z,266.00
2023-12-09T09:23:20.836Z,448.09
2023-12-09T09:25:23.629Z,413.55
2023-12-09T09:27:26.996Z,358.91
2023-12-09T09:29:29.874Z,261.73
2023-12-09T09:31:32.671Z,349.91
2023-12-09T09:33:35.613Z,332.73
2023-12-09T09:35:38.427Z,435.09
2023-12-09T09:37:41.214Z,438.55
2023-12-09T09:39:44.272Z,418.27
2023-12-09T09:42:10.911Z,393.27
2023-12-09T09:44:19.965Z,292.27
2023-12-09T09:46:23.374Z,270.82
2023-12-09T09:48:28.536Z,285.82
2023-12-09T09:50:39.126Z,261.27
2023-12-09T09:52:42.723Z,260.18
2023-12-09T09:54:46.999Z,279.45
2023-12-09T09:56:51.596Z,265.55
2023-12-09T09:58:54.679Z,255.82
2023-12-09T10:00:58.418Z,400.18
2023-12-09T10:03:04.225Z,440.18
2023-12-09T10:05:07.482Z,455.82
2023-12-09T10:07:10.466Z,466.09
2023-12-09T10:09:14.029Z,453.64
2023-12-09T10:11:16.869Z,376.64
2023-12-09T10:13:19.620Z,324.73
2023-12-09T10:15:22.724Z,394.45
2023-12-09T10:17:26.415Z,353.82
2023-12-09T10:19:29.415Z,455.73
2023-12-09T10:21:32.301Z,369.36
2023-12-09T10:23:36.812Z,413.18
2023-12-09T10:25:41.169Z,367.00
2023-12-09T10:27:44.213Z,412.09
2023-12-09T10:29:47.913Z,441.55
2023-12-09T10:31:51.787Z,438.27
2023-12-09T10:33:54.683Z,378.91
2023-12-09T10:36:01.419Z,286.55
2023-12-09T10:38:06.088Z,302.18
2023-12-09T10:40:10.197Z,336.73
2023-12-09T10:42:13.495Z,291.36
2023-12-09T10:44:17.953Z,234.73
2023-12-09T10:46:20.822Z,205.91
2023-12-09T10:48:23.786Z,244.09
2023-12-09T10:50:26.943Z,230.36
2023-12-09T10:52:30.638Z,214.64
2023-12-09T10:54:33.568Z,197.91
2023-12-09T10:56:36.388Z,205.36
2023-12-09T10:58:41.983Z,188.91
2023-12-09T11:00:45.105Z,187.18
2023-12-09T11:02:49.272Z,173.36
2023-12-09T11:04:53.663Z,183.18
2023-12-09T11:07:03.536Z,157.09
2023-12-09T11:09:09.093Z,148.36
2023-12-09T11:11:12.745Z,157.00
2023-12-09T11:13:15.800Z,152.64
2023-12-09T11:15:29.732Z,145.18
2023-12-09T11:17:35.878Z,161.00
2023-12-09T11:19:39.099Z,166.27
2023-12-09T11:21:46.556Z,167.55
2023-12-09T11:23:51.563Z,156.82
2023-12-09T11:25:54.348Z,156.00
2023-12-09T11:27:59.381Z,166.91
2023-12-09T11:30:02.638Z,158.55
2023-12-09T11:32:08.214Z,149.64
2023-12-09T11:34:17.225Z,134.55
2023-12-09T11:36:20.161Z,137.18
2023-12-09T11:38:24.852Z,142.64
2023-12-09T11:40:32.362Z,141.09
2023-12-09T11:42:37.689Z,136.36
2023-12-09T11:44:42.677Z,341.27
2023-12-09T11:46:47.026Z,390.82
2023-12-09T11:48:53.397Z,406.18
2023-12-09T11:50:56.214Z,480.00
2023-12-09T11:52:59.598Z,474.45
2023-12-09T11:55:05.284Z,463.36
2023-12-09T11:57:08.057Z,458.45
2023-12-09T11:59:11.205Z,468.64
2023-12-09T12:01:14.025Z,418.09
2023-12-09T12:03:16.894Z,390.27
2023-12-09T12:05:19.788Z,389.18
2023-12-09T12:07:22.814Z,332.82
2023-12-09T12:09:25.752Z,426.64
2023-12-09T12:11:28.723Z,461.27
2023-12-09T12:13:52.809Z,479.36
2023-12-09T12:15:56.187Z,433.82
2023-12-09T12:18:02.513Z,442.64
2023-12-09T12:20:07.516Z,404.45
2023-12-09T12:22:10.288Z,335.82
2023-12-09T12:24:13.093Z,394.91
2023-12-09T12:26:15.875Z,363.45
2023-12-09T12:28:18.638Z,353.91
2023-12-09T12:30:21.457Z,347.91
2023-12-09T12:32:24.291Z,388.64
2023-12-09T12:34:27.591Z,333.00
2023-12-09T12:36:30.684Z,280.27
2023-12-09T12:38:33.634Z,280.45
2023-12-09T12:40:36.377Z,271.36
2023-12-09T12:42:39.632Z,255.73
2023-12-09T12:44:43.176Z,264.00
2023-12-09T12:46:46.359Z,216.00
2023-12-09T12:48:49.362Z,239.82
2023-12-09T12:50:52.466Z,307.91
2023-12-09T12:52:55.537Z,293.91
2023-12-09T12:54:58.369Z,467.64
2023-12-09T12:57:01.189Z,478.09
2023-12-09T12:59:03.950Z,422.00
2023-12-09T13:01:07.421Z,451.36
2023-12-09T13:03:10.278Z,460.55
2023-12-09T13:05:13.179Z,402.64
2023-12-09T13:07:15.959Z,371.27
2023-12-09T13:09:18.792Z,350.09
2023-12-09T13:11:21.647Z,373.00
2023-12-09T13:13:25.128Z,389.82
2023-12-09T13:15:28.464Z,370.18
2023-12-09T13:17:31.311Z,482.27
2023-12-09T13:19:34.171Z,476.55
2023-12-09T13:21:37.287Z,464.82
2023-12-09T13:23:40.126Z,428.09
2023-12-09T13:25:42.916Z,480.55
2023-12-09T13:27:46.165Z,483.82
2023-12-09T13:29:48.985Z,466.91
2023-12-09T13:31:51.752Z,463.45
2023-12-09T13:33:54.612Z,424.45
2023-12-09T13:35:57.608Z,443.45
2023-12-09T13:38:03.538Z,486.55
2023-12-09T13:40:08.828Z,495.73
2023-12-09T13:42:13.867Z,482.09
2023-12-09T13:44:16.795Z,481.64
2023-12-09T13:46:19.714Z,441.91
2023-12-09T13:48:22.779Z,412.00
2023-12-09T13:50:27.645Z,404.00
2023-12-09T13:52:35.349Z,388.91
2023-12-09T13:54:38.330Z,396.55
2023-12-09T13:56:41.344Z,389.82
2023-12-09T13:58:44.092Z,413.18
2023-12-09T14:00:47.031Z,388.18
2023-12-09T14:02:50.012Z,361.55
2023-12-09T14:04:53.718Z,324.55
2023-12-09T14:06:56.579Z,474.91
2023-12-09T14:08:59.351Z,438.00
2023-12-09T14:11:02.103Z,350.82
2023-12-09T14:13:04.904Z,344.73
2023-12-09T14:15:08.909Z,322.00
2023-12-09T14:17:13.126Z,340.45
2023-12-09T14:19:16.535Z,375.36
2023-12-09T14:21:19.432Z,412.45
2023-12-09T14:23:22.213Z,367.64
2023-12-09T14:25:25.040Z,422.18
2023-12-09T14:27:27.874Z,409.00
2023-12-09T14:29:30.698Z,408.55
2023-12-09T14:31:34.328Z,412.55
2023-12-09T14:33:39.559Z,354.64
2023-12-09T14:35:43.043Z,344.18
2023-12-09T14:37:49.789Z,359.09
2023-12-09T14:39:52.601Z,311.09
2023-12-09T14:41:55.403Z,269.55
2023-12-09T14:44:03.406Z,322.36
2023-12-09T14:46:08.821Z,472.91
2023-12-09T14:48:12.869Z,443.27
2023-12-09T14:50:15.969Z,360.45
2023-12-09T14:52:18.988Z,378.00
2023-12-09T14:54:21.909Z,402.73
2023-12-09T14:56:24.690Z,353.82
2023-12-09T14:58:28.310Z,318.55
2023-12-09T15:00:31.838Z,368.82
2023-12-09T15:02:34.695Z,391.00
2023-12-09T15:04:38.210Z,336.55
2023-12-09T15:06:41.172Z,337.18
2023-12-09T15:08:44.042Z,373.64
2023-12-09T15:10:47.140Z,429.27
2023-12-09T15:12:49.985Z,366.09
2023-12-09T15:14:52.966Z,339.73
2023-12-09T15:16:55.771Z,280.09
2023-12-09T15:18:58.830Z,335.00
2023-12-09T15:21:01.693Z,368.82
2023-12-09T15:23:04.462Z,359.09
2023-12-09T15:25:07.510Z,359.36
2023-12-09T15:27:10.691Z,399.91
2023-12-09T15:29:13.474Z,346.55
2023-12-09T15:31:16.275Z,295.18
2023-12-09T15:33:19.743Z,279.55
2023-12-09T15:35:22.592Z,286.36
2023-12-09T15:37:25.393Z,239.55
2023-12-09T15:39:28.140Z,225.27
2023-12-09T15:41:31.732Z,215.45
2023-12-09T15:43:34.630Z,239.73
2023-12-09T15:45:37.413Z,231.55
2023-12-09T15:47:40.318Z,278.73
2023-12-09T15:49:43.229Z,422.64
2023-12-09T15:51:46.061Z,425.09
2023-12-09T15:53:48.870Z,436.73
2023-12-09T15:55:51.628Z,479.55
2023-12-09T15:57:59.026Z,469.64
2023-12-09T16:00:01.885Z,374.55
2023-12-09T16:02:07.714Z,311.73
2023-12-09T16:04:10.634Z,298.36
2023-12-09T16:06:13.514Z,286.82
2023-12-09T16:08:16.321Z,385.36
2023-12-09T16:10:19.576Z,392.09
2023-12-09T16:12:22.466Z,351.00
2023-12-09T16:14:25.473Z,273.64
2023-12-09T16:16:28.403Z,243.27
2023-12-09T16:18:31.385Z,218.91
2023-12-09T16:20:34.891Z,212.00
2023-12-09T16:22:38.578Z,234.64
2023-12-09T16:24:41.478Z,231.18
2023-12-09T16:26:44.963Z,397.00
2023-12-09T16:28:48.016Z,302.64
2023-12-09T16:30:50.921Z,248.82
2023-12-09T16:32:53.928Z,261.64
2023-12-09T16:34:56.754Z,265.09
2023-12-09T16:36:59.955Z,266.18
2023-12-09T16:39:02.813Z,199.82
2023-12-09T16:41:05.782Z,188.27
2023-12-09T16:43:08.633Z,204.55
2023-12-09T16:45:12.677Z,199.36
2023-12-09T16:47:17.158Z,222.64
2023-12-09T16:49:20.283Z,232.82
2023-12-09T16:51:23.163Z,170.64
2023-12-09T16:53:26.041Z,176.18
2023-12-09T16:55:28.792Z,193.91
2023-12-09T16:57:31.690Z,207.55
2023-12-09T16:59:34.540Z,283.73
2023-12-09T17:01:40.374Z,401.91
2023-12-09T17:03:43.302Z,324.82
2023-12-09T17:05:46.218Z,413.09
2023-12-09T17:07:50.124Z,343.09
2023-12-09T17:09:52.921Z,276.18
2023-12-09T17:11:55.716Z,350.09
2023-12-09T17:13:58.505Z,381.36
2023-12-09T17:16:01.261Z,308.45
2023-12-09T17:18:04.500Z,392.55
2023-12-09T17:20:08.144Z,355.91
2023-12-09T17:22:10.893Z,457.45
2023-12-09T17:24:13.712Z,400.36
2023-12-09T17:26:16.531Z,320.09
2023-12-09T17:28:19.999Z,288.64
2023-12-09T17:30:22.956Z,241.45
2023-12-09T17:32:25.869Z,197.82
2023-12-09T17:34:28.857Z,170.91
2023-12-09T17:36:32.055Z,176.82
2023-12-09T17:38:34.839Z,221.73
2023-12-09T17:40:37.619Z,165.45
2023-12-09T17:42:40.531Z,156.91
2023-12-09T17:44:43.374Z,137.36
2023-12-09T17:46:46.792Z,126.00
2023-12-09T17:48:49.752Z,118.55
2023-12-09T17:50:53.028Z,125.18
2023-12-09T17:52:55.799Z,123.27
2023-12-09T17:54:58.558Z,137.55
2023-12-09T17:57:01.359Z,148.00
2023-12-09T17:59:04.139Z,153.73
2023-12-09T18:01:07.053Z,119.36
2023-12-09T18:03:09.971Z,105.36
2023-12-09T18:05:13.426Z,111.36
2023-12-09T18:07:17.348Z,116.55
2023-12-09T18:09:20.481Z,114.27
2023-12-09T18:11:23.596Z,103.18
2023-12-09T18:13:26.368Z,106.64
2023-12-09T18:15:29.234Z,112.18
2023-12-09T18:17:32.043Z,156.09
2023-12-09T18:19:34.952Z,169.45
2023-12-09T18:21:37.829Z,212.18
2023-12-09T18:23:40.744Z,198.55
2023-12-09T18:25:43.562Z,267.18
2023-12-09T18:27:46.568Z,286.73
2023-12-09T18:29:49.317Z,216.00
2023-12-09T18:31:52.079Z,165.45
2023-12-09T18:33:55.154Z,214.73
2023-12-09T18:35:58.014Z,339.55
2023-12-09T18:38:00.923Z,303.09
2023-12-09T18:40:07.113Z,379.73
2023-12-09T18:42:10.590Z,395.45
2023-12-09T18:44:13.423Z,272.73
2023-12-09T18:46:17.161Z,259.27
2023-12-09T18:48:20.364Z,250.45
2023-12-09T18:50:23.220Z,182.18
2023-12-09T18:52:26.279Z,158.09
2023-12-09T18:54:29.241Z,119.09
2023-12-09T18:56:37.795Z,107.45
2023-12-09T18:58:40.572Z,150.27
2023-12-09T19:00:43.477Z,114.82
2023-12-09T19:02:47.764Z,87.36
2023-12-09T19:04:51.071Z,76.55
2023-12-09T19:06:59.344Z,67.82
2023-12-09T19:09:03.885Z,65.55
2023-12-09T19:11:07.358Z,62.73
2023-12-09T19:13:10.415Z,63.73
2023-12-09T19:15:14.233Z,73.73
2023-12-09T19:17:17.414Z,76.82
2023-12-09T19:19:23.396Z,84.73
2023-12-09T19:21:26.402Z,133.45
2023-12-09T19:23:29.224Z,115.64
2023-12-09T19:25:31.988Z,99.36
2023-12-09T19:27:34.784Z,243.82
2023-12-09T19:29:40.455Z,144.91
2023-12-09T19:31:46.933Z,118.45
2023-12-09T19:33:49.966Z,150.91
2023-12-09T19:35:52.883Z,115.45
2023-12-09T19:37:56.419Z,81.82
2023-12-09T19:39:59.174Z,79.55
2023-12-09T19:42:01.948Z,73.55
2023-12-09T19:44:05.067Z,65.82
2023-12-09T19:46:07.904Z,58.91
2023-12-09T19:48:10.828Z,63.00
2023-12-09T19:50:13.871Z,56.36
2023-12-09T19:52:16.825Z,56.09
2023-12-09T19:54:19.692Z,50.55
2023-12-09T19:56:22.993Z,48.18
2023-12-09T19:58:25.755Z,49.00
2023-12-09T20:00:28.931Z,51.55
2023-12-09T20:02:31.884Z,51.55
2023-12-09T20:04:34.864Z,52.00
2023-12-09T20:06:38.657Z,51.36
2023-12-09T20:08:41.719Z,50.91
2023-12-09T20:10:45.930Z,49.09
2023-12-09T20:12:49.477Z,50.36
2023-12-09T20:14:52.417Z,49.82
2023-12-09T20:16:55.278Z,47.55
2023-12-09T20:18:58.186Z,44.27
2023-12-09T20:21:01.954Z,43.55
2023-12-09T20:23:05.597Z,45.09
2023-12-09T20:25:08.761Z,46.00
2023-12-09T20:27:11.667Z,46.00
2023-12-09T20:29:14.464Z,46.73
2023-12-09T20:31:17.693Z,45.82
2023-12-09T20:33:20.527Z,45.55
2023-12-09T20:35:23.447Z,46.00
2023-12-09T20:37:26.272Z,46.00
2023-12-09T20:39:29.147Z,48.18
2023-12-09T20:41:31.936Z,52.55
2023-12-09T20:43:34.693Z,51.18
2023-12-09T20:45:38.183Z,50.91
2023-12-09T20:47:42.342Z,49.36
2023-12-09T20:49:45.385Z,49.45
2023-12-09T20:51:48.683Z,50.55
2023-12-09T20:53:51.569Z,49.64
2023-12-09T20:55:54.383Z,45.82
2023-12-09T20:57:57.178Z,41.27
2023-12-09T20:59:59.945Z,39.00
2023-12-09T21:02:02.761Z,40.18
2023-12-09T21:04:05.765Z,41.00
2023-12-09T21:06:11.702Z,41.55
2023-12-09T21:08:14.473Z,44.18
2023-12-09T21:10:17.380Z,46.91
2023-12-09T21:12:20.162Z,46.00
2023-12-09T21:14:22.969Z,44.73
2023-12-09T21:16:25.745Z,44.64
2023-12-09T21:18:28.704Z,44.55
2023-12-09T21:20:32.310Z,46.00
2023-12-09T21:22:36.022Z,46.27
2023-12-09T21:24:39.175Z,46.00
2023-12-09T21:26:41.926Z,46.73
2023-12-09T21:28:44.745Z,47.00
2023-12-09T21:30:47.535Z,45.18
2023-12-09T21:32:50.306Z,43.27
2023-12-09T21:34:53.102Z,41.00
2023-12-09T21:36:55.988Z,40.00
2023-12-09T21:38:58.803Z,40.18
2023-12-09T21:41:01.544Z,41.00
2023-12-09T21:43:05.305Z,41.00
2023-12-09T21:45:08.546Z,41.91
2023-12-09T21:47:11.424Z,40.91
2023-12-09T21:49:14.598Z,39.55
2023-12-09T21:51:18.486Z,39.64
2023-12-09T21:53:21.395Z,37.55
2023-12-09T21:55:24.697Z,35.64
2023-12-09T21:57:28.587Z,35.00
2023-12-09T21:59:31.353Z,34.00
2023-12-09T22:01:36.618Z,34.00
2023-12-09T22:03:39.698Z,34.27
2023-12-09T22:05:42.482Z,34.82
2023-12-09T22:07:45.241Z,35.00
2023-12-09T22:09:48.507Z,35.00
2023-12-09T22:11:51.553Z,35.00
2023-12-09T22:13:54.393Z,35.00
2023-12-09T22:15:57.293Z,35.00
2023-12-09T22:18:00.405Z,35.73
2023-12-09T22:20:03.504Z,36.18
2023-12-09T22:22:06.279Z,38.45
2023-12-09T22:24:09.162Z,39.91
2023-12-09T22:26:11.994Z,40.00
2023-12-09T22:28:14.816Z,40.00
2023-12-09T22:30:17.724Z,40.00
2023-12-09T22:32:22.296Z,40.00
2023-12-09T22:34:26.533Z,40.00
2023-12-09T22:36:29.385Z,40.00
2023-12-09T22:38:32.247Z,40.00
2023-12-09T22:40:35.230Z,40.00
2023-12-09T22:42:38.750Z,40.00
2023-12-09T22:44:44.496Z,40.82
2023-12-09T22:46:47.236Z,43.00
2023-12-09T22:48:50.212Z,44.00
2023-12-09T22:50:54.871Z,43.18
2023-12-09T22:52:57.732Z,42.82
2023-12-09T22:55:00.660Z,43.00
2023-12-09T22:57:09.637Z,40.82
2023-12-09T22:59:12.503Z,37.18
2023-12-09T23:01:15.384Z,36.00
2023-12-09T23:03:18.244Z,35.18
2023-12-09T23:05:21.044Z,33.73
2023-12-09T23:07:24.242Z,33.00
2023-12-09T23:09:27.115Z,33.00
2023-12-09T23:11:29.916Z,33.00
2023-12-09T23:13:32.757Z,33.00
2023-12-09T23:15:35.505Z,32.45
2023-12-09T23:17:38.383Z,32.00
2023-12-09T23:19:42.207Z,32.00
2023-12-09T23:21:45.040Z,32.00
2023-12-09T23:23:47.808Z,32.00
2023-12-09T23:25:51.135Z,32.64
2023-12-09T23:27:53.910Z,33.00
2023-12-09T23:29:56.665Z,33.00
2023-12-09T23:31:59.419Z,33.55
2023-12-09T23:34:02.250Z,34.00
2023-12-09T23:36:05.273Z,34.18
2023-12-09T23:38:13.151Z,35.00
2023-12-09T23:40:15.992Z,35.82
2023-12-09T23:42:18.812Z,41.64
2023-12-09T23:44:22.885Z,43.27
2023-12-09T23:46:25.631Z,42.55
2023-12-09T23:48:28.574Z,42.00
2023-12-09T23:50:31.465Z,41.82
2023-12-09T23:52:34.232Z,41.00
2023-12-09T23:54:37.083Z,40.09
2023-12-09T23:56:39.860Z,40.00
2023-12-09T23:58:43.449Z,40.00
